Time;durP1;ratioP1;P1;durP2;ratioP2;P2;SDS_P1;SDS_P2;PMS_P1;PMS_P2;Temp;Humidity;BMP_temperature;BMP_pressure;BME280_temperature;BME280_humidity;BME280_pressure;Samples;Min_cycle;Max_cycle;Signal;HPM_P1;HPM_P2
2022/03/01 00:01:47;;;;;;;10.73;5.70;;;;;;;;;;5093148;28;20434;-45
2022/03/01 00:04:12;;;;;;;10.07;6.07;;;;;;;;;;5093717;28;20038;-46
2022/03/01 00:06:38;;;;;;;9.57;5.63;;;;;;;;;;5093486;28;20028;-44
2022/03/01 00:09:04;;;;;;;11.82;5.43;;;;;;;;;;5092307;28;20028;-44
2022/03/01 00:11:31;;;;;;;11.63;4.72;;;;;;;;;;5092526;28;20034;-44
2022/03/01 00:13:56;;;;;;;9.90;5.30;;;;;;;;;;5092955;28;20038;-46
2022/03/01 00:16:22;;;;;;;13.48;5.75;;;;;;;;;;5092517;28;20412;-45
2022/03/01 00:18:48;;;;;;;10.88;5.28;;;;;;;;;;5093509;28;20441;-43
2022/03/01 00:21:14;;;;;;;6.10;4.78;;;;;;;;;;5093235;28;20107;-44
2022/03/01 00:23:39;;;;;;;8.07;4.68;;;;;;;;;;5093142;28;20119;-44
2022/03/01 00:26:05;;;;;;;9.10;5.32;;;;;;;;;;5093059;28;20032;-42
2022/03/01 00:28:30;;;;;;;8.93;4.90;;;;;;;;;;5093060;28;20475;-47
2022/03/01 00:30:56;;;;;;;8.50;5.75;;;;;;;;;;5093265;28;20031;-43
2022/03/01 00:33:22;;;;;;;7.50;4.50;;;;;;;;;;5093299;28;20020;-44
2022/03/01 00:35:48;;;;;;;8.07;4.60;;;;;;;;;;5091666;28;20043;-44
2022/03/01 00:38:13;;;;;;;6.53;4.53;;;;;;;;;;5093128;28;20153;-44
2022/03/01 00:40:39;;;;;;;8.50;4.88;;;;;;;;;;5092917;28;20073;-44
2022/03/01 00:43:04;;;;;;;5.18;3.42;;;;;;;;;;5092917;28;20024;-44
2022/03/01 00:45:30;;;;;;;7.18;4.65;;;;;;;;;;5093136;28;20604;-42
2022/03/01 00:47:56;;;;;;;9.00;4.22;;;;;;;;;;5092707;28;20031;-46
2022/03/01 00:50:21;;;;;;;10.93;5.18;;;;;;;;;;5092609;28;20141;-47
2022/03/01 00:52:47;;;;;;;7.95;5.18;;;;;;;;;;5092244;28;20396;-44
2022/03/01 00:55:12;;;;;;;8.50;5.50;;;;;;;;;;5092848;28;20035;-44
2022/03/01 00:57:38;;;;;;;8.30;4.93;;;;;;;;;;5092561;28;20081;-43
2022/03/01 01:00:05;;;;;;;10.23;5.60;;;;;;;;;;5092629;28;20028;-43
2022/03/01 01:02:31;;;;;;;9.10;6.15;;;;;;;;;;5091161;28;20051;-43
2022/03/01 01:04:56;;;;;;;6.15;3.70;;;;;;;;;;5092474;28;20480;-43
2022/03/01 01:07:22;;;;;;;11.13;5.15;;;;;;;;;;5092558;28;20494;-43
2022/03/01 01:09:48;;;;;;;8.38;3.85;;;;;;;;;;5092734;28;20032;-43
2022/03/01 01:12:14;;;;;;;5.43;4.07;;;;;;;;;;5092758;28;20062;-42
2022/03/01 01:14:39;;;;;;;6.50;4.32;;;;;;;;;;5090958;28;20054;-43
2022/03/01 01:17:05;;;;;;;7.32;4.72;;;;;;;;;;5092371;28;20110;-45
2022/03/01 01:19:30;;;;;;;14.43;4.82;;;;;;;;;;5092365;28;20119;-45
2022/03/01 01:24:40;;;;;;;3.85;3.03;;;;;;;;;;5092511;28;20492;-43
2022/03/01 01:27:05;;;;;;;14.48;5.80;;;;;;;;;;5092647;28;20036;-43
2022/03/01 01:29:31;;;;;;;7.75;5.35;;;;;;;;;;5092547;28;20020;-47
2022/03/01 01:31:56;;;;;;;4.20;3.13;;;;;;;;;;5092189;28;20036;-50
2022/03/01 01:34:22;;;;;;;6.90;4.88;;;;;;;;;;5092472;28;20054;-44
2022/03/01 01:36:47;;;;;;;7.75;4.20;;;;;;;;;;5092431;28;20050;-44
2022/03/01 01:39:13;;;;;;;7.03;3.88;;;;;;;;;;5092517;28;20028;-43
2022/03/01 01:41:38;;;;;;;10.20;4.72;;;;;;;;;;5092130;28;20024;-43
2022/03/01 01:44:06;;;;;;;7.03;4.72;;;;;;;;;;5092087;28;20028;-43
2022/03/01 01:46:31;;;;;;;8.93;5.40;;;;;;;;;;5092141;28;20028;-44
2022/03/01 01:48:57;;;;;;;7.00;5.00;;;;;;;;;;5092071;28;20028;-44
2022/03/01 01:51:24;;;;;;;8.27;5.20;;;;;;;;;;5092135;28;20357;-43
2022/03/01 01:53:50;;;;;;;10.13;4.47;;;;;;;;;;5092150;28;20107;-42
2022/03/01 01:56:15;;;;;;;7.18;4.82;;;;;;;;;;5091919;28;20445;-42
2022/03/01 01:58:42;;;;;;;9.32;4.93;;;;;;;;;;5092125;28;20491;-44
2022/03/01 02:01:07;;;;;;;9.02;5.35;;;;;;;;;;5092375;28;20033;-42
2022/03/01 02:03:33;;;;;;;11.25;7.18;;;;;;;;;;5091995;28;20020;-43
2022/03/01 02:05:58;;;;;;;7.70;5.43;;;;;;;;;;5095654;28;20020;-43
2022/03/01 02:08:31;;;;;;;8.07;4.65;;;;;;;;;;5096081;28;20391;-43
2022/03/01 02:10:57;;;;;;;8.57;5.28;;;;;;;;;;5095839;28;20031;-43
2022/03/01 02:13:23;;;;;;;8.35;3.63;;;;;;;;;;5096020;28;20036;-43
2022/03/01 02:15:49;;;;;;;12.70;6.47;;;;;;;;;;5095390;28;20089;-42
2022/03/01 02:18:16;;;;;;;10.18;4.18;;;;;;;;;;5095889;28;20054;-44
2022/03/01 02:20:42;;;;;;;11.50;7.47;;;;;;;;;;5094329;28;20039;-43
2022/03/01 02:23:07;;;;;;;12.13;6.28;;;;;;;;;;5095622;28;20480;-43
2022/03/01 02:25:33;;;;;;;12.68;7.68;;;;;;;;;;5095868;28;20470;-43
2022/03/01 02:27:59;;;;;;;12.80;7.88;;;;;;;;;;5095616;28;20020;-43
2022/03/01 02:30:24;;;;;;;12.13;7.20;;;;;;;;;;5095730;28;20483;-42
2022/03/01 02:32:50;;;;;;;12.43;7.18;;;;;;;;;;5095396;28;20016;-43
2022/03/01 02:35:16;;;;;;;13.77;7.63;;;;;;;;;;5095205;28;20028;-43
2022/03/01 02:37:42;;;;;;;11.10;6.18;;;;;;;;;;5095334;28;20077;-41
2022/03/01 02:40:09;;;;;;;6.13;4.53;;;;;;;;;;5095306;28;20022;-43
2022/03/01 02:42:38;;;;;;;9.07;5.95;;;;;;;;;;5095311;28;20429;-44
2022/03/01 02:45:07;;;;;;;11.05;6.63;;;;;;;;;;5095289;28;20054;-42
2022/03/01 02:47:33;;;;;;;9.00;4.85;;;;;;;;;;5095424;28;20027;-43
2022/03/01 02:49:58;;;;;;;8.23;5.28;;;;;;;;;;5095270;28;20047;-43
2022/03/01 02:52:24;;;;;;;8.27;6.47;;;;;;;;;;5095089;28;20372;-43
2022/03/01 02:54:49;;;;;;;10.25;6.47;;;;;;;;;;5094921;28;20020;-42
2022/03/01 02:57:15;;;;;;;11.15;7.05;;;;;;;;;;5095254;28;20133;-44
2022/03/01 02:59:41;;;;;;;13.07;7.07;;;;;;;;;;5094825;28;20020;-42
2022/03/01 03:02:06;;;;;;;8.63;5.30;;;;;;;;;;5094722;28;20121;-42
2022/03/01 03:04:32;;;;;;;10.48;7.10;;;;;;;;;;5095047;28;20451;-44
2022/03/01 03:06:58;;;;;;;10.27;6.15;;;;;;;;;;5094887;28;20024;-42
2022/03/01 03:09:23;;;;;;;8.55;5.70;;;;;;;;;;5094703;28;20043;-44
2022/03/01 03:11:50;;;;;;;8.70;6.45;;;;;;;;;;5094563;28;20035;-44
2022/03/01 03:14:16;;;;;;;7.50;5.82;;;;;;;;;;5094565;28;20028;-43
2022/03/01 03:16:42;;;;;;;9.25;5.32;;;;;;;;;;5093915;28;20075;-43
2022/03/01 03:19:07;;;;;;;9.48;6.90;;;;;;;;;;5094760;28;20054;-44
2022/03/01 03:21:33;;;;;;;9.48;5.20;;;;;;;;;;5094322;28;20422;-43
2022/03/01 03:23:59;;;;;;;10.27;6.13;;;;;;;;;;5094283;28;20024;-43
2022/03/01 03:26:25;;;;;;;7.43;4.57;;;;;;;;;;5094257;28;20099;-44
2022/03/01 03:28:51;;;;;;;13.80;7.50;;;;;;;;;;5094266;28;20066;-43
2022/03/01 03:31:17;;;;;;;21.38;6.05;;;;;;;;;;5094303;28;20054;-42
2022/03/01 03:33:43;;;;;;;10.23;6.93;;;;;;;;;;5094155;28;20028;-42
2022/03/01 03:36:08;;;;;;;6.03;4.45;;;;;;;;;;5094266;28;20024;-42
2022/03/01 03:38:34;;;;;;;9.05;6.55;;;;;;;;;;5094147;28;20035;-43
2022/03/01 03:40:59;;;;;;;6.10;3.97;;;;;;;;;;5094064;28;20107;-43
2022/03/01 03:43:25;;;;;;;5.93;3.95;;;;;;;;;;5094336;28;20074;-43
2022/03/01 03:45:50;;;;;;;8.70;5.60;;;;;;;;;;5093949;28;20028;-43
2022/03/01 03:48:16;;;;;;;7.07;5.07;;;;;;;;;;5092606;28;20020;-43
2022/03/01 03:50:42;;;;;;;9.98;6.18;;;;;;;;;;5094161;28;20495;-44
2022/03/01 03:53:08;;;;;;;6.70;4.30;;;;;;;;;;5094092;28;20486;-43
2022/03/01 03:55:34;;;;;;;5.18;4.38;;;;;;;;;;5093662;28;20035;-42
2022/03/01 03:57:59;;;;;;;10.18;4.75;;;;;;;;;;5093752;28;20032;-44
2022/03/01 04:00:25;;;;;;;6.25;4.03;;;;;;;;;;5093725;28;20137;-43
2022/03/01 04:02:51;;;;;;;5.63;3.95;;;;;;;;;;5093745;28;20020;-43
2022/03/01 04:05:17;;;;;;;9.35;4.45;;;;;;;;;;5093654;28;20031;-43
2022/03/01 04:07:44;;;;;;;10.82;5.05;;;;;;;;;;5093411;28;20107;-43
2022/03/01 04:10:11;;;;;;;6.82;4.00;;;;;;;;;;5093765;28;20032;-44
2022/03/01 04:12:37;;;;;;;8.68;4.68;;;;;;;;;;5092256;28;20495;-43
2022/03/01 04:15:04;;;;;;;6.05;4.18;;;;;;;;;;5093330;28;20052;-42
2022/03/01 04:17:30;;;;;;;5.03;4.18;;;;;;;;;;5092107;28;20028;-43
2022/03/01 04:19:56;;;;;;;5.68;3.38;;;;;;;;;;5091853;28;20028;-43
2022/03/01 04:22:22;;;;;;;5.20;3.97;;;;;;;;;;5093338;28;20468;-42
2022/03/01 04:24:47;;;;;;;9.73;5.00;;;;;;;;;;5093255;28;20031;-43
2022/03/01 04:27:13;;;;;;;4.85;2.83;;;;;;;;;;5092766;28;20028;-41
2022/03/01 04:29:38;;;;;;;7.25;5.38;;;;;;;;;;5093078;28;20471;-43
2022/03/01 04:32:04;;;;;;;5.78;3.33;;;;;;;;;;5093326;28;20024;-42
2022/03/01 04:34:30;;;;;;;5.55;3.92;;;;;;;;;;5093036;28;20628;-42
2022/03/01 04:36:55;;;;;;;6.93;3.80;;;;;;;;;;5093262;28;20020;-42
2022/03/01 04:39:21;;;;;;;9.35;4.85;;;;;;;;;;5093157;28;20470;-44
2022/03/01 04:41:48;;;;;;;4.50;2.58;;;;;;;;;;5093080;28;20468;-42
2022/03/01 04:44:14;;;;;;;4.13;3.42;;;;;;;;;;5092951;28;20030;-43
2022/03/01 04:46:40;;;;;;;7.82;4.50;;;;;;;;;;5093046;28;20020;-44
2022/03/01 04:49:09;;;;;;;4.80;3.53;;;;;;;;;;5091624;28;20533;-43
2022/03/01 04:51:35;;;;;;;5.97;4.07;;;;;;;;;;5092766;28;20024;-43
2022/03/01 04:54:00;;;;;;;8.77;3.50;;;;;;;;;;5092631;28;20028;-45
2022/03/01 04:56:26;;;;;;;5.45;3.28;;;;;;;;;;5092618;28;20051;-44
2022/03/01 04:58:52;;;;;;;7.72;3.53;;;;;;;;;;5092625;28;20081;-42
2022/03/01 05:01:17;;;;;;;5.15;3.42;;;;;;;;;;5092766;28;20024;-42
2022/03/01 05:03:43;;;;;;;6.63;3.05;;;;;;;;;;5092663;28;20373;-41
2022/03/01 05:06:09;;;;;;;7.65;3.83;;;;;;;;;;5092755;28;20101;-42
2022/03/01 05:08:34;;;;;;;7.28;4.10;;;;;;;;;;5092572;28;20716;-42
2022/03/01 05:11:02;;;;;;;8.07;4.20;;;;;;;;;;5092456;28;20020;-41
2022/03/01 05:13:28;;;;;;;3.25;1.98;;;;;;;;;;5092398;28;20024;-43
2022/03/01 05:15:53;;;;;;;5.20;3.67;;;;;;;;;;5092025;28;20502;-42
2022/03/01 05:18:21;;;;;;;3.53;2.58;;;;;;;;;;5092715;28;20537;-42
2022/03/01 05:20:47;;;;;;;8.32;4.38;;;;;;;;;;5092666;28;20050;-45
2022/03/01 05:23:13;;;;;;;5.07;3.35;;;;;;;;;;5092445;28;20031;-43
2022/03/01 05:25:38;;;;;;;6.35;3.45;;;;;;;;;;5092549;28;20028;-44
2022/03/01 05:28:04;;;;;;;5.85;3.63;;;;;;;;;;5092387;28;20028;-44
2022/03/01 05:30:30;;;;;;;4.55;1.98;;;;;;;;;;5091229;28;20032;-42
2022/03/01 05:32:56;;;;;;;9.07;4.13;;;;;;;;;;5092239;28;20476;-42
2022/03/01 05:35:27;;;;;;;7.97;4.40;;;;;;;;;;5092187;28;20119;-42
2022/03/01 05:37:54;;;;;;;9.15;3.78;;;;;;;;;;5092556;28;20024;-43
2022/03/01 05:40:26;;;;;;;4.28;2.75;;;;;;;;;;5096516;28;20020;-43
2022/03/01 05:42:52;;;;;;;7.47;4.15;;;;;;;;;;5096746;28;20428;-44
2022/03/01 05:45:19;;;;;;;8.50;3.58;;;;;;;;;;5096524;28;20038;-46
2022/03/01 05:47:45;;;;;;;7.80;3.70;;;;;;;;;;5096537;28;20028;-42
2022/03/01 05:50:12;;;;;;;8.35;4.13;;;;;;;;;;5096404;28;20055;-43
2022/03/01 05:52:39;;;;;;;6.35;3.67;;;;;;;;;;5096210;28;20031;-42
2022/03/01 05:55:08;;;;;;;7.57;4.03;;;;;;;;;;5096043;28;20115;-41
2022/03/01 05:57:34;;;;;;;6.63;3.93;;;;;;;;;;5096306;28;20024;-43
2022/03/01 06:00:00;;;;;;;9.70;4.85;;;;;;;;;;5095950;28;20024;-44
2022/03/01 06:02:25;;;;;;;9.75;4.60;;;;;;;;;;5095992;28;20165;-43
2022/03/01 06:04:52;;;;;;;11.68;5.20;;;;;;;;;;5095864;28;20024;-47
2022/03/01 06:07:19;;;;;;;10.57;4.32;;;;;;;;;;5095843;28;20404;-43
2022/03/01 06:09:45;;;;;;;9.80;4.65;;;;;;;;;;5095606;28;20035;-44
2022/03/01 06:12:10;;;;;;;7.20;3.17;;;;;;;;;;5095681;28;20024;-45
2022/03/01 06:14:36;;;;;;;5.65;3.92;;;;;;;;;;5095533;28;20112;-43
2022/03/01 06:17:02;;;;;;;17.88;4.95;;;;;;;;;;5095674;28;20028;-44
2022/03/01 06:19:27;;;;;;;9.07;4.47;;;;;;;;;;5095973;28;20107;-44
2022/03/01 06:21:53;;;;;;;6.93;3.90;;;;;;;;;;5095599;28;20028;-41
2022/03/01 06:24:19;;;;;;;7.05;3.40;;;;;;;;;;5095546;28;20028;-42
2022/03/01 06:26:44;;;;;;;6.88;4.43;;;;;;;;;;5095544;28;20028;-44
2022/03/01 06:29:10;;;;;;;4.85;3.40;;;;;;;;;;5095469;28;20024;-41
2022/03/01 06:31:36;;;;;;;5.82;3.85;;;;;;;;;;5095504;28;20016;-42
2022/03/01 06:34:02;;;;;;;7.03;3.92;;;;;;;;;;5095449;28;20059;-44
2022/03/01 06:36:28;;;;;;;6.80;3.55;;;;;;;;;;5095230;28;20103;-45
2022/03/01 06:38:53;;;;;;;6.10;3.63;;;;;;;;;;5094132;28;20116;-42
2022/03/01 06:41:19;;;;;;;5.15;3.40;;;;;;;;;;5095562;28;20032;-43
2022/03/01 06:43:45;;;;;;;6.22;3.97;;;;;;;;;;5093819;28;20128;-43
2022/03/01 06:46:11;;;;;;;5.97;4.28;;;;;;;;;;5095208;28;20027;-45
2022/03/01 06:48:36;;;;;;;4.97;2.97;;;;;;;;;;5095159;28;20050;-43
2022/03/01 06:51:03;;;;;;;5.25;3.40;;;;;;;;;;5094374;28;20032;-42
2022/03/01 06:53:29;;;;;;;4.55;2.78;;;;;;;;;;5095093;28;20454;-44
2022/03/01 06:55:54;;;;;;;12.75;4.15;;;;;;;;;;5094805;28;20028;-43
2022/03/01 06:58:20;;;;;;;7.80;4.35;;;;;;;;;;5094976;28;20095;-40
2022/03/01 07:00:46;;;;;;;7.18;3.47;;;;;;;;;;5095536;28;20020;-40
2022/03/01 07:03:12;;;;;;;10.95;4.60;;;;;;;;;;5095444;28;20033;-40
2022/03/01 07:05:37;;;;;;;7.68;3.85;;;;;;;;;;5095480;28;20016;-40
2022/03/01 07:08:03;;;;;;;9.93;3.83;;;;;;;;;;5094116;28;20063;-41
2022/03/01 07:10:29;;;;;;;6.50;4.60;;;;;;;;;;5095359;28;20444;-40
2022/03/01 07:12:55;;;;;;;6.72;4.47;;;;;;;;;;5095174;28;20039;-40
2022/03/01 07:15:21;;;;;;;7.13;3.97;;;;;;;;;;5094953;28;20044;-40
2022/03/01 07:17:47;;;;;;;12.13;3.75;;;;;;;;;;5095311;28;20036;-40
2022/03/01 07:20:13;;;;;;;6.75;4.82;;;;;;;;;;5095417;28;20054;-40
2022/03/01 07:22:40;;;;;;;5.85;3.30;;;;;;;;;;5094972;28;20028;-45
2022/03/01 07:25:07;;;;;;;9.30;5.15;;;;;;;;;;5094970;28;20028;-40
2022/03/01 07:27:32;;;;;;;7.75;4.22;;;;;;;;;;5094776;28;20102;-40
2022/03/01 07:29:59;;;;;;;9.98;5.47;;;;;;;;;;5093499;28;20135;-40
2022/03/01 07:32:24;;;;;;;11.70;4.53;;;;;;;;;;5094794;28;20035;-40
2022/03/01 07:34:50;;;;;;;4.22;2.95;;;;;;;;;;5094713;28;20024;-43
2022/03/01 07:37:16;;;;;;;8.25;4.72;;;;;;;;;;5094437;28;20028;-41
2022/03/01 07:39:42;;;;;;;5.78;2.90;;;;;;;;;;5094537;28;20379;-41
2022/03/01 07:42:08;;;;;;;6.70;3.60;;;;;;;;;;5094743;28;20024;-41
2022/03/01 07:44:39;;;;;;;7.88;4.45;;;;;;;;;;5094424;28;20528;-40
2022/03/01 07:47:07;;;;;;;7.60;4.90;;;;;;;;;;5094417;28;20028;-41
2022/03/01 07:49:33;;;;;;;7.20;4.00;;;;;;;;;;5094263;28;20020;-41
2022/03/01 07:51:58;;;;;;;6.63;4.80;;;;;;;;;;5094573;28;20028;-40
2022/03/01 07:54:24;;;;;;;8.23;4.63;;;;;;;;;;5094133;28;20024;-40
2022/03/01 07:56:50;;;;;;;9.27;5.32;;;;;;;;;;5093966;28;20034;-41
2022/03/01 07:59:15;;;;;;;8.57;4.75;;;;;;;;;;5094050;28;20107;-41
2022/03/01 08:01:41;;;;;;;9.02;5.30;;;;;;;;;;5091501;28;20113;-40
2022/03/01 08:04:07;;;;;;;5.82;4.03;;;;;;;;;;5093877;28;20162;-41
2022/03/01 08:06:32;;;;;;;7.07;4.20;;;;;;;;;;5093902;28;20024;-41
2022/03/01 08:08:58;;;;;;;6.28;3.95;;;;;;;;;;5092519;28;20020;-41
2022/03/01 08:11:24;;;;;;;7.13;4.15;;;;;;;;;;5093837;28;20476;-41
2022/03/01 08:13:49;;;;;;;6.72;4.25;;;;;;;;;;5093663;28;20105;-41
2022/03/01 08:16:15;;;;;;;6.57;4.45;;;;;;;;;;5092250;28;20518;-40
2022/03/01 08:18:41;;;;;;;7.82;5.38;;;;;;;;;;5092426;28;20030;-40
2022/03/01 08:21:07;;;;;;;4.97;2.50;;;;;;;;;;5093457;28;20024;-41
2022/03/01 08:23:33;;;;;;;3.45;2.95;;;;;;;;;;5093487;28;20024;-41
2022/03/01 08:25:58;;;;;;;5.05;2.80;;;;;;;;;;5093350;28;20020;-42
2022/03/01 08:28:25;;;;;;;7.88;3.97;;;;;;;;;;5092022;28;20092;-41
2022/03/01 08:30:53;;;;;;;8.02;3.10;;;;;;;;;;5093585;28;20024;-42
2022/03/01 08:33:20;;;;;;;4.82;3.25;;;;;;;;;;5093290;28;20013;-41
2022/03/01 08:35:46;;;;;;;4.95;3.08;;;;;;;;;;5093096;28;20425;-41
2022/03/01 08:38:11;;;;;;;4.90;3.25;;;;;;;;;;5093426;28;20028;-41
2022/03/01 08:40:39;;;;;;;6.82;3.58;;;;;;;;;;5093221;28;20375;-43
2022/03/01 08:43:06;;;;;;;7.07;3.33;;;;;;;;;;5093166;28;20470;-41
2022/03/01 08:45:33;;;;;;;7.47;4.40;;;;;;;;;;5092924;28;20024;-40
2022/03/01 08:48:00;;;;;;;5.95;3.92;;;;;;;;;;5092829;28;20043;-41
2022/03/01 08:50:25;;;;;;;4.20;2.78;;;;;;;;;;5092864;28;20030;-45
2022/03/01 08:52:51;;;;;;;7.43;4.20;;;;;;;;;;5092769;28;20020;-42
2022/03/01 08:55:17;;;;;;;7.00;3.50;;;;;;;;;;5092930;28;20464;-41
2022/03/01 08:57:42;;;;;;;4.75;2.95;;;;;;;;;;5092694;28;20470;-42
2022/03/01 09:00:10;;;;;;;9.10;4.43;;;;;;;;;;5090377;28;20028;-40
2022/03/01 09:02:36;;;;;;;5.05;2.58;;;;;;;;;;5092845;28;20069;-41
2022/03/01 09:05:02;;;;;;;7.65;4.90;;;;;;;;;;5092772;28;20032;-41
2022/03/01 09:07:28;;;;;;;2.58;2.20;;;;;;;;;;5092486;28;20460;-42
2022/03/01 09:09:53;;;;;;;4.85;2.20;;;;;;;;;;5092459;28;20028;-41
2022/03/01 09:12:19;;;;;;;5.60;3.10;;;;;;;;;;5091142;28;20525;-41
2022/03/01 09:14:45;;;;;;;4.55;3.17;;;;;;;;;;5090485;28;20046;-41
2022/03/01 09:17:11;;;;;;;5.65;3.63;;;;;;;;;;5092122;28;20102;-42
2022/03/01 09:19:36;;;;;;;5.15;2.83;;;;;;;;;;5091676;28;20089;-41
2022/03/01 09:22:02;;;;;;;6.68;4.13;;;;;;;;;;5089193;28;20496;-42
2022/03/01 09:24:28;;;;;;;3.63;2.92;;;;;;;;;;5091343;28;20058;-41
2022/03/01 09:26:54;;;;;;;4.00;2.75;;;;;;;;;;5092294;28;20421;-41
2022/03/01 09:29:20;;;;;;;5.25;3.97;;;;;;;;;;5092361;28;20027;-41
2022/03/01 09:31:45;;;;;;;3.83;2.95;;;;;;;;;;5091144;28;20059;-40
2022/03/01 09:34:11;;;;;;;6.13;3.75;;;;;;;;;;5090003;28;20020;-41
2022/03/01 09:36:37;;;;;;;3.40;2.80;;;;;;;;;;5090163;28;20051;-40
2022/03/01 09:39:03;;;;;;;4.72;2.70;;;;;;;;;;5074200;28;20027;-41
2022/03/01 09:41:29;;;;;;;5.10;4.35;;;;;;;;;;5092064;28;20447;-41
2022/03/01 09:43:58;;;;;;;6.47;4.53;;;;;;;;;;5092098;28;20030;-40
2022/03/01 09:46:24;;;;;;;6.68;3.05;;;;;;;;;;5092441;28;20371;-41
2022/03/01 09:48:49;;;;;;;7.28;3.72;;;;;;;;;;5092071;28;20031;-41
2022/03/01 09:51:16;;;;;;;6.15;3.42;;;;;;;;;;5090952;28;20050;-40
2022/03/01 09:53:42;;;;;;;2.05;1.85;;;;;;;;;;5091995;28;20384;-43
2022/03/01 09:56:08;;;;;;;3.33;2.42;;;;;;;;;;5091852;28;20388;-41
2022/03/01 09:58:35;;;;;;;6.45;3.90;;;;;;;;;;5091980;28;20024;-41
2022/03/01 10:01:01;;;;;;;3.70;2.60;;;;;;;;;;5091833;28;20027;-41
2022/03/01 10:03:28;;;;;;;6.22;3.85;;;;;;;;;;5092165;28;20020;-45
2022/03/01 10:06:08;;;;;;;5.82;3.63;;;;;;;;;;5091858;28;20024;-41
2022/03/01 10:08:34;;;;;;;7.22;3.78;;;;;;;;;;5091949;28;20028;-41
2022/03/01 10:10:59;;;;;;;5.90;2.40;;;;;;;;;;5091907;28;20039;-41
2022/03/01 10:13:30;;;;;;;6.57;3.85;;;;;;;;;;5092113;28;20034;-42
2022/03/01 10:16:06;;;;;;;6.88;4.10;;;;;;;;;;5091665;28;20056;-44
2022/03/01 10:18:41;;;;;;;5.18;3.30;;;;;;;;;;5091923;28;20574;-41
2022/03/01 10:21:16;;;;;;;7.28;4.40;;;;;;;;;;5091753;28;20025;-41
2022/03/01 10:23:56;;;;;;;6.00;2.88;;;;;;;;;;5091871;28;20056;-42
2022/03/01 10:26:24;;;;;;;4.28;3.58;;;;;;;;;;5092649;28;20031;-43
2022/03/01 10:28:52;;;;;;;3.03;2.60;;;;;;;;;;5094063;28;20119;-42
2022/03/01 10:31:22;;;;;;;7.20;4.22;;;;;;;;;;5094796;28;20435;-40
2022/03/01 10:34:09;;;;;;;3.65;2.40;;;;;;;;;;5094057;28;20081;-41
2022/03/01 10:36:44;;;;;;;2.78;2.30;;;;;;;;;;5088890;28;20093;-41
2022/03/01 10:39:11;;;;;;;5.70;2.35;;;;;;;;;;5094185;28;20073;-45
2022/03/01 10:41:39;;;;;;;3.05;2.40;;;;;;;;;;5094320;28;20442;-40
2022/03/01 10:44:05;;;;;;;4.82;2.47;;;;;;;;;;5094128;28;20034;-42
2022/03/01 10:46:39;;;;;;;7.80;2.95;;;;;;;;;;5094072;28;20103;-41
2022/03/01 10:49:08;;;;;;;4.45;2.83;;;;;;;;;;5094071;28;20020;-49
2022/03/01 10:51:35;;;;;;;2.67;1.58;;;;;;;;;;5094045;28;20130;-52
2022/03/01 10:54:00;;;;;;;2.65;2.45;;;;;;;;;;5093236;28;20043;-54
2022/03/01 10:56:35;;;;;;;5.18;2.65;;;;;;;;;;5092984;28;20422;-48
2022/03/01 10:59:02;;;;;;;5.30;2.60;;;;;;;;;;5090773;28;20044;-49
2022/03/01 11:01:28;;;;;;;5.20;3.17;;;;;;;;;;5092893;28;20034;-54
2022/03/01 11:03:53;;;;;;;4.65;2.90;;;;;;;;;;5093248;28;20023;-57
2022/03/01 11:06:19;;;;;;;2.53;2.15;;;;;;;;;;5092928;28;20035;-58
2022/03/01 11:08:46;;;;;;;5.20;2.65;;;;;;;;;;5093050;28;20024;-51
2022/03/01 11:11:12;;;;;;;4.97;2.90;;;;;;;;;;5093239;28;20035;-51
2022/03/01 11:13:43;;;;;;;3.63;2.08;;;;;;;;;;5091751;28;20062;-51
2022/03/01 11:16:36;;;;;;;9.05;2.55;;;;;;;;;;5092274;28;20060;-59
2022/03/01 11:19:19;;;;;;;5.03;2.70;;;;;;;;;;5089766;28;20122;-48
2022/03/01 11:21:50;;;;;;;5.05;2.78;;;;;;;;;;5092116;28;20085;-50
2022/03/01 11:24:19;;;;;;;3.38;2.40;;;;;;;;;;5091459;28;20123;-48
2022/03/01 11:26:45;;;;;;;3.72;2.67;;;;;;;;;;5092993;28;20384;-48
2022/03/01 11:29:13;;;;;;;5.07;2.50;;;;;;;;;;5092901;28;20426;-53
2022/03/01 11:31:41;;;;;;;5.22;2.60;;;;;;;;;;5092971;28;20020;-51
2022/03/01 11:34:21;;;;;;;7.55;3.25;;;;;;;;;;5092686;28;20024;-50
2022/03/01 11:36:49;;;;;;;4.57;3.05;;;;;;;;;;5092828;28;20027;-49
2022/03/01 11:39:24;;;;;;;5.32;3.30;;;;;;;;;;5092801;28;20165;-54
2022/03/01 11:41:52;;;;;;;4.60;3.03;;;;;;;;;;5092666;28;20028;-50
2022/03/01 11:44:21;;;;;;;4.47;1.90;;;;;;;;;;5092776;28;20024;-49
2022/03/01 11:46:49;;;;;;;5.88;2.85;;;;;;;;;;5092236;28;20107;-50
2022/03/01 11:49:17;;;;;;;5.68;3.03;;;;;;;;;;5091849;28;20020;-51
2022/03/01 11:51:54;;;;;;;4.72;2.67;;;;;;;;;;5092172;28;20046;-49
2022/03/01 11:54:23;;;;;;;4.47;2.88;;;;;;;;;;5092400;28;20108;-49
2022/03/01 11:56:51;;;;;;;2.53;2.30;;;;;;;;;;5090811;28;20058;-46
2022/03/01 11:59:17;;;;;;;4.10;2.15;;;;;;;;;;5091295;28;20368;-52
2022/03/01 12:01:45;;;;;;;4.88;2.60;;;;;;;;;;5091455;28;20116;-54
2022/03/01 12:04:10;;;;;;;6.03;2.80;;;;;;;;;;5091480;28;20024;-50
2022/03/01 12:06:40;;;;;;;6.20;2.83;;;;;;;;;;5091754;28;20054;-45
2022/03/01 12:09:08;;;;;;;3.97;2.40;;;;;;;;;;5091581;28;20383;-46
2022/03/01 12:11:44;;;;;;;13.13;3.05;;;;;;;;;;5091474;28;20028;-44
2022/03/01 12:14:16;;;;;;;11.65;4.13;;;;;;;;;;5091435;28;20204;-48
2022/03/01 12:16:41;;;;;;;2.42;2.08;;;;;;;;;;5091613;28;20048;-56
2022/03/01 12:19:19;;;;;;;1.73;1.50;;;;;;;;;;5091603;28;20467;-53
2022/03/01 12:21:54;;;;;;;5.38;3.00;;;;;;;;;;5091636;28;20858;-47
2022/03/01 12:24:22;;;;;;;2.65;2.10;;;;;;;;;;5091713;28;20027;-48
2022/03/01 12:26:54;;;;;;;4.20;2.42;;;;;;;;;;5091258;28;20039;-48
2022/03/01 12:29:22;;;;;;;3.67;2.40;;;;;;;;;;5091171;28;20055;-51
2022/03/01 12:32:04;;;;;;;4.05;2.33;;;;;;;;;;5088474;28;20107;-48
2022/03/01 12:34:31;;;;;;;6.03;2.83;;;;;;;;;;5088824;28;20073;-50
2022/03/01 12:37:03;;;;;;;3.90;2.63;;;;;;;;;;5090874;28;20099;-55
2022/03/01 12:39:29;;;;;;;4.15;2.85;;;;;;;;;;5088731;28;20114;-53
2022/03/01 12:41:56;;;;;;;4.25;2.83;;;;;;;;;;5091253;28;20111;-49
2022/03/01 12:44:25;;;;;;;4.82;2.72;;;;;;;;;;5091381;28;20510;-54
2022/03/01 12:46:51;;;;;;;6.90;3.55;;;;;;;;;;5091312;28;20058;-53
2022/03/01 12:49:17;;;;;;;2.65;2.08;;;;;;;;;;5090966;28;20036;-50
2022/03/01 12:51:45;;;;;;;2.72;2.45;;;;;;;;;;5091126;28;20561;-46
2022/03/01 12:54:14;;;;;;;5.57;2.20;;;;;;;;;;5091146;28;20485;-48
2022/03/01 12:56:45;;;;;;;10.32;4.80;;;;;;;;;;5089597;28;20066;-48
2022/03/01 12:59:13;;;;;;;1.65;1.55;;;;;;;;;;5091329;28;20032;-50
2022/03/01 13:01:42;;;;;;;4.72;3.00;;;;;;;;;;5090894;28;20460;-49
2022/03/01 13:04:08;;;;;;;3.22;2.50;;;;;;;;;;5091371;28;20107;-50
2022/03/01 13:06:35;;;;;;;3.70;2.17;;;;;;;;;;5090837;28;20174;-49
2022/03/01 13:09:02;;;;;;;9.70;3.63;;;;;;;;;;5090999;28;20028;-52
2022/03/01 13:11:29;;;;;;;5.22;3.72;;;;;;;;;;5090794;28;20031;-47
2022/03/01 13:14:06;;;;;;;4.45;2.10;;;;;;;;;;5089523;28;20406;-49
2022/03/01 13:16:37;;;;;;;4.47;2.67;;;;;;;;;;5090581;28;20096;-48
2022/03/01 13:19:14;;;;;;;2.50;2.00;;;;;;;;;;5091008;28;20081;-50
2022/03/01 13:21:48;;;;;;;3.45;2.65;;;;;;;;;;5091014;28;20034;-50
2022/03/01 13:24:33;;;;;;;5.22;2.95;;;;;;;;;;5090571;28;20050;-45
2022/03/01 13:27:00;;;;;;;3.58;2.55;;;;;;;;;;5091144;28;20043;-48
2022/03/01 13:29:28;;;;;;;4.68;1.77;;;;;;;;;;5090982;28;20020;-46
2022/03/01 13:32:11;;;;;;;8.32;4.22;;;;;;;;;;5090357;28;20492;-49
2022/03/01 13:34:42;;;;;;;5.28;2.92;;;;;;;;;;5090647;28;20534;-48
2022/03/01 13:37:10;;;;;;;10.63;3.33;;;;;;;;;;5090568;28;20032;-50
2022/03/01 13:39:37;;;;;;;6.43;2.40;;;;;;;;;;5089940;28;20483;-47
2022/03/01 13:42:04;;;;;;;7.55;3.05;;;;;;;;;;5090707;28;20043;-49
2022/03/01 13:44:33;;;;;;;5.90;3.30;;;;;;;;;;5090762;28;20024;-48
2022/03/01 13:47:13;;;;;;;5.40;3.10;;;;;;;;;;5091519;28;20679;-46
2022/03/01 13:49:52;;;;;;;8.38;3.65;;;;;;;;;;5091263;28;20042;-49
2022/03/01 13:52:24;;;;;;;5.93;2.70;;;;;;;;;;5091403;28;20056;-50
2022/03/01 13:55:00;;;;;;;9.23;3.67;;;;;;;;;;5091062;28;20031;-52
2022/03/01 13:57:27;;;;;;;4.80;2.72;;;;;;;;;;5091355;28;20375;-49
2022/03/01 14:00:06;;;;;;;6.25;4.25;;;;;;;;;;5090978;28;20024;-52
2022/03/01 14:02:32;;;;;;;4.15;2.05;;;;;;;;;;5094317;28;20084;-49
2022/03/01 14:05:03;;;;;;;2.58;1.85;;;;;;;;;;5094713;28;20032;-49
2022/03/01 14:07:28;;;;;;;4.25;2.47;;;;;;;;;;5094836;28;20074;-52
2022/03/01 14:09:54;;;;;;;5.28;2.05;;;;;;;;;;5093868;28;20054;-52
2022/03/01 14:12:38;;;;;;;2.88;1.38;;;;;;;;;;5094688;28;20031;-52
2022/03/01 14:15:05;;;;;;;7.00;2.30;;;;;;;;;;5094601;28;20067;-46
2022/03/01 14:17:31;;;;;;;5.47;2.47;;;;;;;;;;5094504;28;20152;-51
2022/03/01 14:19:58;;;;;;;5.35;3.13;;;;;;;;;;5094879;28;20474;-50
2022/03/01 14:22:25;;;;;;;7.85;3.03;;;;;;;;;;5094453;28;20036;-46
2022/03/01 14:24:52;;;;;;;2.80;2.00;;;;;;;;;;5094324;28;20032;-49
2022/03/01 14:27:18;;;;;;;3.67;2.45;;;;;;;;;;5094317;28;20040;-48
2022/03/01 14:29:45;;;;;;;7.50;4.28;;;;;;;;;;5094380;28;20028;-51
2022/03/01 14:32:12;;;;;;;5.75;3.95;;;;;;;;;;5094539;28;20388;-50
2022/03/01 14:34:39;;;;;;;13.63;4.03;;;;;;;;;;5094520;28;20494;-53
2022/03/01 14:37:04;;;;;;;10.50;4.00;;;;;;;;;;5093951;28;20053;-49
2022/03/01 14:39:30;;;;;;;5.97;3.20;;;;;;;;;;5093821;28;20020;-50
2022/03/01 14:41:55;;;;;;;4.75;3.03;;;;;;;;;;5093991;28;20023;-50
2022/03/01 14:44:21;;;;;;;6.93;3.70;;;;;;;;;;5093936;28;20020;-48